Time;durP1;ratioP1;P1;durP2;ratioP2;P2;SDS_P1;SDS_P2;PMS_P1;PMS_P2;Temp;Humidity;BMP_temperature;BMP_pressure;BME280_temperature;BME280_humidity;BME280_pressure;Samples;Min_cycle;Max_cycle;Signal;HPM_P1;HPM_P2
2021/08/05 00:00:50;;;;;;;4.40;3.40;;;;;;;11.20;100.00;92755.28;2098755;28;20033;-88
2021/08/05 00:01:51;;;;;;;3.88;3.42;;;;;;;11.26;100.00;92748.22;2098780;28;20024;-85
2021/08/05 00:02:52;;;;;;;5.38;3.22;;;;;;;11.24;100.00;92754.00;2106976;28;20024;-86
2021/08/05 00:03:53;;;;;;;3.63;3.10;;;;;;;11.22;100.00;92750.25;2106972;28;20075;-84
2021/08/05 00:04:54;;;;;;;4.43;3.30;;;;;;;11.21;100.00;92749.50;2098599;28;20123;-86
2021/08/05 00:05:55;;;;;;;3.50;3.00;;;;;;;11.24;100.00;92750.59;2098327;28;20025;-86
2021/08/05 00:06:56;;;;;;;3.30;3.00;;;;;;;11.23;100.00;92743.72;2090324;28;20498;-86
2021/08/05 00:07:57;;;;;;;7.70;3.33;;;;;;;11.21;100.00;92741.47;2100402;28;20111;-83
2021/08/05 00:08:57;;;;;;;5.03;2.92;;;;;;;11.22;100.00;92748.31;2115459;28;20019;-87
2021/08/05 00:10:01;;;;;;;5.93;3.00;;;;;;;11.25;100.00;92746.72;2098533;28;20020;-87
2021/08/05 00:11:02;;;;;;;4.00;2.80;;;;;;;11.23;100.00;92747.13;2092887;28;20052;-82
2021/08/05 00:12:03;;;;;;;3.53;2.90;;;;;;;11.25;100.00;92744.03;2092861;28;20401;-88
2021/08/05 00:13:04;;;;;;;3.67;2.67;;;;;;;11.19;100.00;92751.84;2101345;28;20045;-84
2021/08/05 00:14:05;;;;;;;4.50;3.30;;;;;;;11.17;100.00;92742.75;2098617;28;20025;-82
2021/08/05 00:15:07;;;;;;;3.08;2.53;;;;;;;11.14;100.00;92746.28;2102144;28;20053;-85
2021/08/05 00:16:08;;;;;;;5.15;2.80;;;;;;;11.10;100.00;92743.69;2110323;28;20110;-88
2021/08/05 00:17:10;;;;;;;6.70;3.30;;;;;;;11.05;100.00;92745.00;2112062;28;20031;-89
2021/08/05 00:18:11;;;;;;;5.32;2.85;;;;;;;11.08;100.00;92746.81;2102446;28;20032;-85
2021/08/05 00:19:13;;;;;;;6.60;2.60;;;;;;;11.11;100.00;92747.91;2115383;28;20514;-87
2021/08/05 00:20:14;;;;;;;4.15;2.72;;;;;;;11.09;100.00;92750.25;2111199;28;20019;-86
2021/08/05 00:21:17;;;;;;;4.57;2.85;;;;;;;11.03;100.00;92747.34;2098483;28;20020;-86
2021/08/05 00:22:18;;;;;;;8.27;2.55;;;;;;;11.03;100.00;92749.28;2098994;28;20023;-87
2021/08/05 00:23:19;;;;;;;2.80;2.60;;;;;;;11.01;100.00;92752.38;2099198;28;20032;-86
2021/08/05 00:24:20;;;;;;;6.32;2.90;;;;;;;11.06;100.00;92762.56;2098685;28;20377;-86
2021/08/05 00:25:21;;;;;;;4.82;2.92;;;;;;;11.07;100.00;92752.59;2098492;28;20035;-85
2021/08/05 00:26:22;;;;;;;6.05;2.63;;;;;;;11.08;100.00;92756.78;2098625;28;20020;-83
2021/08/05 00:27:23;;;;;;;3.13;2.83;;;;;;;11.06;100.00;92751.09;2106866;28;20107;-84
2021/08/05 00:28:24;;;;;;;3.05;2.85;;;;;;;11.01;100.00;92741.66;2098282;28;20028;-84
2021/08/05 00:29:25;;;;;;;4.60;2.80;;;;;;;10.94;100.00;92744.56;2098668;28;20089;-83
2021/08/05 00:30:25;;;;;;;4.60;2.60;;;;;;;10.91;100.00;92748.09;2095920;28;20063;-87
2021/08/05 00:31:26;;;;;;;3.58;3.17;;;;;;;10.92;100.00;92749.56;2098298;28;20069;-83
2021/08/05 00:32:27;;;;;;;4.70;2.72;;;;;;;10.88;100.00;92754.28;2098385;28;20023;-84
2021/08/05 00:33:28;;;;;;;4.10;2.67;;;;;;;10.81;100.00;92749.16;2098517;28;20025;-85
2021/08/05 00:34:29;;;;;;;4.28;2.80;;;;;;;10.81;100.00;92754.50;2098331;28;20469;-86
2021/08/05 00:35:30;;;;;;;4.18;2.40;;;;;;;10.72;100.00;92746.34;2100426;28;20127;-86
2021/08/05 00:36:31;;;;;;;2.70;2.42;;;;;;;10.70;100.00;92749.44;2090185;28;20468;-84
2021/08/05 00:37:32;;;;;;;4.72;3.03;;;;;;;10.69;100.00;92745.28;2089614;28;20025;-89
2021/08/05 00:38:33;;;;;;;5.30;2.85;;;;;;;10.66;100.00;92746.13;2094108;28;20076;-85
2021/08/05 00:39:34;;;;;;;3.00;2.70;;;;;;;10.67;100.00;92744.97;2099879;28;20029;-88
2021/08/05 00:40:35;;;;;;;2.80;2.50;;;;;;;10.70;100.00;92743.34;2092768;28;20725;-85
2021/08/05 00:41:36;;;;;;;3.38;2.78;;;;;;;10.63;100.00;92746.97;2093012;28;20108;-86
2021/08/05 00:42:37;;;;;;;3.10;2.55;;;;;;;10.59;100.00;92747.06;2098773;28;20047;-84
2021/08/05 00:43:38;;;;;;;5.35;2.90;;;;;;;10.65;100.00;92751.91;2106883;28;20028;-86
2021/08/05 00:44:39;;;;;;;2.40;2.20;;;;;;;10.63;100.00;92751.59;2106799;28;20024;-87
2021/08/05 00:45:40;;;;;;;4.97;2.58;;;;;;;10.63;100.00;92748.91;2097876;28;20032;-88
2021/08/05 00:46:40;;;;;;;2.78;2.58;;;;;;;10.59;100.00;92754.34;2098224;28;20080;-88
2021/08/05 00:47:41;;;;;;;3.47;2.70;;;;;;;10.61;100.00;92753.91;2106556;28;20024;-85
2021/08/05 00:48:42;;;;;;;4.03;2.90;;;;;;;10.57;100.00;92751.34;2106375;28;20058;-84
2021/08/05 00:49:43;;;;;;;5.53;3.00;;;;;;;10.53;100.00;92750.69;2098370;28;20055;-85
2021/08/05 00:50:47;;;;;;;6.15;3.08;;;;;;;10.55;100.00;92748.34;2106871;28;20028;-86
2021/08/05 00:51:48;;;;;;;2.97;2.58;;;;;;;10.55;100.00;92743.75;2098336;28;20024;-86
2021/08/05 00:52:49;;;;;;;4.80;2.95;;;;;;;10.50;100.00;92744.28;2090069;28;20734;-84
2021/08/05 00:53:50;;;;;;;2.90;2.53;;;;;;;10.45;100.00;92744.06;2099046;28;20489;-86
2021/08/05 00:54:51;;;;;;;3.70;3.00;;;;;;;10.50;100.00;92743.53;2106781;28;20024;-87
2021/08/05 00:55:53;;;;;;;2.58;2.38;;;;;;;10.42;100.00;92745.63;2106870;28;20019;-85
2021/08/05 00:56:54;;;;;;;5.30;2.63;;;;;;;10.42;100.00;92742.97;2110937;28;20039;-83
2021/08/05 00:57:55;;;;;;;3.25;2.38;;;;;;;10.35;100.00;92745.81;2098222;28;20027;-86
2021/08/05 00:58:56;;;;;;;3.35;2.60;;;;;;;10.40;100.00;92747.22;2098606;28;20052;-85
2021/08/05 00:59:57;;;;;;;2.75;2.55;;;;;;;10.41;100.00;92749.50;2106634;28;20412;-85
2021/08/05 01:01:13;;;;;;;3.83;2.58;;;;;;;10.46;100.00;92740.22;2106860;28;20073;-83
2021/08/05 01:02:22;;;;;;;3.38;2.40;;;;;;;10.39;100.00;92743.81;2108602;28;20020;-86
2021/08/05 01:03:32;;;;;;;3.08;2.78;;;;;;;10.43;100.00;92746.38;2104688;28;20056;-89
2021/08/05 01:04:34;;;;;;;2.60;2.40;;;;;;;10.43;100.00;92744.47;2101875;28;20534;-83
2021/08/05 01:05:40;;;;;;;3.17;1.95;;;;;;;10.43;100.00;92741.78;2098424;28;20051;-85
2021/08/05 01:06:58;;;;;;;3.70;2.17;;;;;;;10.43;100.00;92735.69;2107118;27;20044;-85
2021/08/05 01:08:11;;;;;;;3.00;2.22;;;;;;;10.39;100.00;92741.13;2102631;28;20024;-87
2021/08/05 01:09:18;;;;;;;2.33;2.00;;;;;;;10.42;100.00;92742.22;2108331;28;20030;-84
2021/08/05 01:10:30;;;;;;;3.05;2.50;;;;;;;10.46;100.00;92742.88;2111444;28;20760;-83
2021/08/05 01:11:37;;;;;;;2.63;2.30;;;;;;;10.45;100.00;92744.06;2109496;27;20032;-89
2021/08/05 01:12:51;;;;;;;3.80;2.50;;;;;;;10.41;100.00;92741.47;2107402;28;20027;-84
2021/08/05 01:13:56;;;;;;;2.30;2.05;;;;;;;10.45;100.00;92739.47;2109265;27;20097;-88
2021/08/05 01:15:03;;;;;;;4.13;2.60;;;;;;;10.46;100.00;92735.59;2105425;28;20086;-86
2021/08/05 01:16:13;;;;;;;3.08;2.78;;;;;;;10.47;100.00;92739.03;2093074;28;20029;-85
2021/08/05 01:17:17;;;;;;;5.05;2.63;;;;;;;10.47;100.00;92731.75;2094940;28;20363;-86
2021/08/05 01:18:33;;;;;;;5.20;2.30;;;;;;;10.51;100.00;92737.75;2099280;28;20071;-85
2021/08/05 01:19:50;;;;;;;4.68;2.42;;;;;;;10.53;100.00;92740.00;2108581;28;20573;-86
2021/08/05 01:20:52;;;;;;;3.58;2.28;;;;;;;10.50;100.00;92733.59;2108579;28;20031;-85
2021/08/05 01:22:11;;;;;;;3.75;2.60;;;;;;;10.49;100.00;92728.66;2097879;28;20472;-86
2021/08/05 01:23:23;;;;;;;3.53;2.40;;;;;;;10.43;100.00;92733.03;2098139;28;20040;-86
2021/08/05 01:24:26;;;;;;;2.30;2.10;;;;;;;10.45;100.00;92733.38;2093004;28;20025;-86
2021/08/05 01:25:49;;;;;;;2.95;2.53;;;;;;;10.49;100.00;92729.44;2098549;28;20020;-85
2021/08/05 01:26:50;;;;;;;4.28;2.45;;;;;;;10.49;100.00;92736.66;2101415;28;20058;-86
2021/08/05 01:27:52;;;;;;;5.28;2.40;;;;;;;10.52;100.00;92735.81;2106354;28;20036;-86
2021/08/05 01:28:53;;;;;;;4.38;2.45;;;;;;;10.54;100.00;92736.16;2098109;28;20024;-85
2021/08/05 01:29:56;;;;;;;4.15;2.55;;;;;;;10.55;100.00;92730.38;2089779;28;20658;-87
2021/08/05 01:30:57;;;;;;;4.07;2.40;;;;;;;10.57;100.00;92735.28;2098082;28;20047;-85
2021/08/05 01:32:01;;;;;;;3.65;2.40;;;;;;;10.55;100.00;92735.72;2089907;28;20717;-87
2021/08/05 01:33:02;;;;;;;3.15;2.05;;;;;;;10.55;100.00;92735.72;2106568;28;20016;-88
2021/08/05 01:34:03;;;;;;;4.53;2.53;;;;;;;10.55;100.00;92733.06;2097855;28;20048;-86
2021/08/05 01:35:05;;;;;;;1.95;1.75;;;;;;;10.55;100.00;92735.00;2095985;28;20024;-85
2021/08/05 01:36:06;;;;;;;3.95;2.15;;;;;;;10.62;100.00;92736.69;2098053;28;20031;-85
2021/08/05 01:37:09;;;;;;;2.15;1.95;;;;;;;10.65;100.00;92730.50;2106190;28;20023;-84
2021/08/05 01:38:14;;;;;;;2.33;2.13;;;;;;;10.64;100.00;92737.03;2106433;28;20492;-85
2021/08/05 01:39:15;;;;;;;2.20;2.00;;;;;;;10.69;100.00;92736.50;2105136;28;20028;-84
2021/08/05 01:40:17;;;;;;;5.50;2.00;;;;;;;10.61;100.00;92732.53;2089741;28;20028;-84
2021/08/05 01:41:20;;;;;;;3.53;2.28;;;;;;;10.65;100.00;92731.25;2098259;28;20020;-86
2021/08/05 01:42:21;;;;;;;5.53;2.10;;;;;;;10.69;100.00;92723.16;2106252;28;20048;-85
2021/08/05 01:43:23;;;;;;;2.13;1.92;;;;;;;10.63;100.00;92724.84;2111578;28;20011;-84
2021/08/05 01:44:27;;;;;;;2.97;2.00;;;;;;;10.65;100.00;92727.84;2114728;28;20056;-86
2021/08/05 01:45:28;;;;;;;2.45;2.03;;;;;;;10.65;100.00;92727.84;2106600;28;20028;-87
2021/08/05 01:46:29;;;;;;;2.45;2.15;;;;;;;10.64;100.00;92727.09;2097861;28;20051;-83
2021/08/05 01:47:30;;;;;;;2.35;2.05;;;;;;;10.64;100.00;92721.75;2097954;28;20037;-85
2021/08/05 01:48:32;;;;;;;4.03;1.80;;;;;;;10.66;100.00;92723.97;2099654;28;20039;-84
2021/08/05 01:49:35;;;;;;;5.75;2.10;;;;;;;10.62;100.00;92728.69;2105542;28;20102;-88
2021/08/05 01:50:36;;;;;;;2.58;2.25;;;;;;;10.57;100.00;92720.00;2090127;28;20033;-85
2021/08/05 01:51:39;;;;;;;3.58;2.00;;;;;;;10.58;100.00;92724.19;2089783;28;20017;-84
2021/08/05 01:52:42;;;;;;;4.22;1.70;;;;;;;10.55;100.00;92721.63;2098468;28;20020;-84
2021/08/05 01:53:43;;;;;;;2.60;2.38;;;;;;;10.51;100.00;92721.72;2097760;28;20075;-85
2021/08/05 01:54:46;;;;;;;1.85;1.70;;;;;;;10.55;100.00;92721.63;2114427;28;20027;-84
2021/08/05 01:55:47;;;;;;;3.78;2.08;;;;;;;10.53;100.00;92711.34;2106269;28;20074;-85
2021/08/05 01:56:48;;;;;;;3.47;2.25;;;;;;;10.45;100.00;92717.34;2089636;28;20025;-85
2021/08/05 01:57:49;;;;;;;2.50;2.05;;;;;;;10.48;100.00;92709.19;2089939;28;20088;-83
2021/08/05 01:58:51;;;;;;;2.55;2.35;;;;;;;10.43;100.00;92712.41;2097948;28;20024;-84
2021/08/05 01:59:52;;;;;;;2.47;2.28;;;;;;;10.40;100.00;92713.25;2090688;28;20028;-84
2021/08/05 02:00:54;;;;;;;3.30;2.30;;;;;;;10.36;100.00;92709.94;2104966;28;20665;-83
2021/08/05 02:01:55;;;;;;;4.05;2.03;;;;;;;10.34;100.00;92707.66;2107934;28;20036;-83
2021/08/05 02:02:56;;;;;;;1.70;1.60;;;;;;;10.38;100.00;92707.59;2099882;28;20020;-84
2021/08/05 02:04:10;;;;;;;4.50;2.13;;;;;;;10.34;100.00;92710.34;2101093;28;20490;-84
2021/08/05 02:05:20;;;;;;;1.63;1.52;;;;;;;10.35;100.00;92705.75;2112243;27;20024;-85
2021/08/05 02:06:24;;;;;;;2.58;2.17;;;;;;;10.30;100.00;92703.59;2102247;28;20032;-85
2021/08/05 02:07:28;;;;;;;3.75;1.77;;;;;;;10.32;100.00;92702.00;2104123;28;20032;-84
2021/08/05 02:08:51;;;;;;;3.30;2.20;;;;;;;10.32;100.00;92706.63;2105876;28;20058;-84
2021/08/05 02:10:16;;;;;;;3.55;2.50;;;;;;;10.30;100.00;92706.28;2101633;28;20028;-84
2021/08/05 02:11:23;;;;;;;2.75;2.38;;;;;;;10.27;100.00;92696.44;2095946;28;20027;-86
2021/08/05 02:12:26;;;;;;;3.85;2.42;;;;;;;10.22;100.00;92705.69;2104463;28;20028;-85
2021/08/05 02:13:30;;;;;;;3.65;2.30;;;;;;;10.14;100.00;92706.28;2105950;28;20136;-85
2021/08/05 02:14:34;;;;;;;3.45;2.53;;;;;;;10.12;100.00;92695.28;2104093;28;20028;-82
2021/08/05 02:15:36;;;;;;;2.70;2.45;;;;;;;10.15;100.00;92697.13;2096810;28;20485;-85
2021/08/05 02:16:38;;;;;;;2.47;2.28;;;;;;;10.18;100.00;92702.34;2103993;28;20073;-83
2021/08/05 02:17:42;;;;;;;2.97;2.25;;;;;;;10.20;100.00;92693.94;2107076;28;20056;-86
2021/08/05 02:18:45;;;;;;;4.25;2.40;;;;;;;10.19;100.00;92701.22;2114490;28;20548;-83
2021/08/05 02:19:46;;;;;;;3.20;2.42;;;;;;;10.11;100.00;92696.47;2106368;28;20024;-84
2021/08/05 02:20:48;;;;;;;3.85;2.20;;;;;;;10.14;100.00;92693.72;2106299;28;20024;-84
2021/08/05 02:21:50;;;;;;;8.35;2.25;;;;;;;10.09;100.00;92697.63;2105811;28;20023;-85
2021/08/05 02:22:51;;;;;;;3.50;2.40;;;;;;;10.09;100.00;92696.88;2097941;28;20755;-83
2021/08/05 02:23:56;;;;;;;2.20;2.00;;;;;;;10.06;100.00;92697.75;2106846;28;20100;-85
2021/08/05 02:24:58;;;;;;;3.88;2.17;;;;;;;10.04;100.00;92697.41;2106550;28;20020;-86
2021/08/05 02:26:00;;;;;;;4.20;2.90;;;;;;;9.95;100.00;92700.69;2106227;28;20020;-86
2021/08/05 02:27:01;;;;;;;5.30;2.22;;;;;;;10.01;100.00;92699.00;2106011;28;20028;-88
2021/08/05 02:28:02;;;;;;;2.53;2.33;;;;;;;10.00;100.00;92691.41;2097581;28;20032;-84
2021/08/05 02:29:04;;;;;;;2.63;2.30;;;;;;;10.01;100.00;92695.59;2105916;28;20028;-86
2021/08/05 02:30:07;;;;;;;2.45;2.15;;;;;;;10.07;100.00;92693.91;2106034;28;20469;-85
2021/08/05 02:31:09;;;;;;;2.70;2.47;;;;;;;10.06;100.00;92695.06;2095318;28;20088;-87
2021/08/05 02:32:10;;;;;;;2.10;1.90;;;;;;;10.07;100.00;92691.22;2089468;28;20024;-84
2021/08/05 02:33:13;;;;;;;2.08;1.90;;;;;;;10.08;100.00;92698.81;2100972;28;20536;-83
2021/08/05 02:34:15;;;;;;;3.72;1.83;;;;;;;10.12;100.00;92698.72;2098000;28;20025;-87
2021/08/05 02:35:18;;;;;;;2.05;1.95;;;;;;;10.14;100.00;92700.94;2102130;28;20027;-86
2021/08/05 02:36:19;;;;;;;4.40;2.00;;;;;;;10.20;100.00;92702.69;2102475;28;20027;-87
2021/08/05 02:37:20;;;;;;;2.22;2.03;;;;;;;10.19;100.00;92695.13;2105997;28;20028;-90
2021/08/05 02:38:22;;;;;;;2.67;2.17;;;;;;;10.17;100.00;92700.88;2102814;28;20406;-84
2021/08/05 02:39:23;;;;;;;6.00;2.38;;;;;;;10.15;100.00;92707.81;2097965;28;20020;-87
2021/08/05 02:40:24;;;;;;;2.30;2.10;;;;;;;10.15;100.00;92699.81;2092483;28;20028;-89
2021/08/05 02:41:27;;;;;;;3.15;2.03;;;;;;;10.17;100.00;92700.13;2094719;28;20016;-87
2021/08/05 02:42:28;;;;;;;2.33;2.10;;;;;;;10.20;100.00;92693.94;2097327;28;20020;-87
2021/08/05 02:43:32;;;;;;;3.97;2.72;;;;;;;10.24;100.00;92690.03;2097685;28;20024;-86
2021/08/05 02:44:34;;;;;;;3.25;2.28;;;;;;;10.18;100.00;92694.34;2098388;28;20021;-87
2021/08/05 02:45:36;;;;;;;2.63;2.40;;;;;;;10.26;100.00;92692.25;2104573;28;20019;-87
2021/08/05 02:46:37;;;;;;;3.90;2.53;;;;;;;10.25;100.00;92690.78;2097903;28;20033;-84
2021/08/05 02:47:39;;;;;;;2.80;2.55;;;;;;;10.26;100.00;92698.34;2106066;28;20052;-84
2021/08/05 02:48:40;;;;;;;5.47;2.58;;;;;;;10.25;100.00;92690.78;2106251;28;20035;-87
2021/08/05 02:49:41;;;;;;;3.33;2.22;;;;;;;10.25;100.00;92693.44;2122931;28;20042;-86
2021/08/05 02:50:42;;;;;;;5.80;3.08;;;;;;;10.27;100.00;92693.75;2105982;28;20491;-85
2021/08/05 02:51:45;;;;;;;2.63;2.42;;;;;;;10.24;100.00;92691.91;2097102;28;20306;-88
2021/08/05 02:52:47;;;;;;;8.57;2.95;;;;;;;10.21;100.00;92696.19;2106327;28;20900;-85
2021/08/05 02:53:49;;;;;;;2.38;2.17;;;;;;;10.19;100.00;92692.44;2097761;28;20025;-85
2021/08/05 02:54:50;;;;;;;2.30;2.10;;;;;;;10.26;100.00;92689.59;2098039;28;20029;-86
2021/08/05 02:55:51;;;;;;;8.02;2.22;;;;;;;10.15;100.00;92687.19;2089459;28;20412;-86
2021/08/05 02:56:53;;;;;;;5.47;2.67;;;;;;;10.21;100.00;92685.50;2089345;28;20056;-86
2021/08/05 02:57:54;;;;;;;3.10;2.60;;;;;;;10.26;100.00;92692.25;2099387;28;20109;-86
2021/08/05 02:58:55;;;;;;;4.38;2.35;;;;;;;10.23;100.00;92687.75;2105978;28;20515;-88
2021/08/05 02:59:57;;;;;;;2.80;2.60;;;;;;;10.23;100.00;92690.44;2098877;28;20031;-83
2021/08/05 03:00:58;;;;;;;2.80;2.53;;;;;;;10.24;100.00;92683.91;2098354;28;20021;-85
2021/08/05 03:01:59;;;;;;;3.35;3.05;;;;;;;10.20;100.00;92688.59;2107757;27;20374;-85
2021/08/05 03:03:00;;;;;;;2.88;2.60;;;;;;;10.21;100.00;92690.84;2115982;28;20073;-87
2021/08/05 03:04:02;;;;;;;2.70;2.50;;;;;;;10.25;100.00;92696.84;2107620;28;20027;-84
2021/08/05 03:05:08;;;;;;;7.93;2.80;;;;;;;10.24;100.00;92694.59;2099106;28;20028;-84
2021/08/05 03:06:10;;;;;;;6.00;2.50;;;;;;;10.24;100.00;92694.59;2105128;28;20440;-85
2021/08/05 03:07:11;;;;;;;2.97;2.67;;;;;;;10.21;100.00;92687.41;2094244;28;20035;-86
2021/08/05 03:08:12;;;;;;;5.40;2.88;;;;;;;10.18;100.00;92688.25;2099050;28;20055;-85
2021/08/05 03:09:14;;;;;;;5.47;2.60;;;;;;;10.21;100.00;92688.16;2097660;28;20028;-86
2021/08/05 03:10:16;;;;;;;3.40;2.60;;;;;;;10.20;100.00;92688.59;2091056;28;20021;-84
2021/08/05 03:11:18;;;;;;;4.05;2.47;;;;;;;10.19;100.00;92690.53;2103953;27;20103;-88
2021/08/05 03:12:18;;;;;;;4.13;2.92;;;;;;;10.18;100.00;92686.31;2107394;28;20581;-85
2021/08/05 03:13:19;;;;;;;2.80;2.22;;;;;;;10.12;100.00;92687.28;2099339;28;20036;-84
2021/08/05 03:14:20;;;;;;;6.55;2.50;;;;;;;10.09;100.00;92684.28;2107537;28;20024;-86
2021/08/05 03:15:21;;;;;;;6.25;2.60;;;;;;;10.09;100.00;92676.25;2099185;28;20074;-84
2021/08/05 03:16:22;;;;;;;5.47;2.72;;;;;;;10.08;100.00;92679.38;2099029;28;20424;-86
2021/08/05 03:17:23;;;;;;;3.20;2.70;;;;;;;10.05;100.00;92686.31;2090947;28;20088;-83
2021/08/05 03:18:24;;;;;;;3.95;2.70;;;;;;;10.01;100.00;92679.56;2099026;28;20106;-87
2021/08/05 03:19:25;;;;;;;2.85;2.63;;;;;;;9.94;100.00;92674.41;2101343;28;20061;-88
2021/08/05 03:20:26;;;;;;;2.42;2.20;;;;;;;9.94;100.00;92677.81;2101876;28;20027;-84
2021/08/05 03:21:27;;;;;;;3.28;2.40;;;;;;;9.96;100.00;92670.13;2107605;28;20028;-85
2021/08/05 03:22:28;;;;;;;3.05;2.65;;;;;;;9.95;100.00;92676.66;2107380;28;20404;-85
2021/08/05 03:23:29;;;;;;;4.80;2.83;;;;;;;9.93;100.00;92673.66;2098739;28;20028;-89
2021/08/05 03:24:30;;;;;;;14.07;2.60;;;;;;;9.92;100.00;92668.72;2107584;28;20361;-85
2021/08/05 03:25:30;;;;;;;4.10;2.67;;;;;;;9.88;100.00;92684.88;2107407;28;20028;-84
2021/08/05 03:26:31;;;;;;;11.63;2.65;;;;;;;9.87;100.00;92678.00;2101302;28;20051;-85
2021/08/05 03:27:32;;;;;;;10.68;2.40;;;;;;;9.92;100.00;92680.19;2092881;28;20437;-85
2021/08/05 03:28:33;;;;;;;14.55;2.45;;;;;;;9.97;100.00;92681.59;2109193;28;20016;-86
2021/08/05 03:29:35;;;;;;;13.20;2.53;;;;;;;9.93;100.00;92678.25;2105445;28;20103;-87
2021/08/05 03:30:36;;;;;;;3.42;2.50;;;;;;;9.87;100.00;92680.66;2092374;28;20509;-85
2021/08/05 03:31:36;;;;;;;13.57;2.70;;;;;;;9.87;100.00;92685.25;2105876;28;20023;-87
2021/08/05 03:32:37;;;;;;;5.53;2.38;;;;;;;9.83;100.00;92682.69;2107389;28;20027;-85
2021/08/05 03:33:41;;;;;;;2.35;2.15;;;;;;;9.79;100.00;92682.06;2098594;28;20771;-88
2021/08/05 03:34:41;;;;;;;3.20;2.25;;;;;;;9.80;100.00;92684.28;2103526;28;20497;-87
2021/08/05 03:35:42;;;;;;;2.38;2.17;;;;;;;9.76;100.00;92688.97;2098097;28;20020;-83
2021/08/05 03:36:43;;;;;;;2.95;2.40;;;;;;;9.80;100.00;92692.31;2098807;28;20020;-84
2021/08/05 03:37:44;;;;;;;60.20;2.85;;;;;;;9.86;100.00;92689.09;2099005;28;20082;-84
2021/08/05 03:38:45;;;;;;;23.33;2.25;;;;;;;9.80;100.00;92681.63;2106811;28;20161;-85
2021/08/05 03:39:46;;;;;;;7.53;2.08;;;;;;;9.82;100.00;92683.84;2101290;28;20036;-85
2021/08/05 03:40:47;;;;;;;34.58;2.45;;;;;;;9.85;100.00;92691.03;2098868;28;20475;-86
2021/08/05 03:41:48;;;;;;;30.50;2.53;;;;;;;9.90;100.00;92687.09;2098989;28;20024;-82
2021/08/05 03:42:49;;;;;;;2.63;1.75;;;;;;;9.87;100.00;92687.94;2107050;27;20020;-84
2021/08/05 03:43:50;;;;;;;6.10;2.10;;;;;;;9.82;100.00;92686.53;2115255;28;20023;-87
2021/08/05 03:44:52;;;;;;;2.55;2.35;;;;;;;9.82;100.00;92687.28;2107215;28;20042;-87
2021/08/05 03:45:53;;;;;;;2.10;2.00;;;;;;;9.75;100.00;92692.06;2115704;28;20023;-85
2021/08/05 03:46:54;;;;;;;2.28;2.05;;;;;;;9.76;100.00;92682.88;2115505;28;20032;-87
2021/08/05 03:47:55;;;;;;;6.47;2.70;;;;;;;9.83;100.00;92688.78;2099625;28;20028;-84
2021/08/05 03:48:56;;;;;;;3.95;2.08;;;;;;;9.83;100.00;92698.69;2098733;28;20020;-86
2021/08/05 03:49:57;;;;;;;2.42;2.22;;;;;;;9.74;100.00;92688.63;2090624;28;20025;-84
2021/08/05 03:50:58;;;;;;;5.15;2.20;;;;;;;9.76;100.00;92693.56;2100234;28;20020;-85
2021/08/05 03:51:59;;;;;;;3.03;2.15;;;;;;;9.70;100.00;92690.66;2105486;28;20024;-85
2021/08/05 03:52:59;;;;;;;4.55;1.92;;;;;;;9.72;100.00;92687.56;2098821;28;20080;-85
2021/08/05 03:54:01;;;;;;;1.88;1.77;;;;;;;9.66;100.00;92694.56;2090627;28;20028;-85
2021/08/05 03:55:03;;;;;;;3.25;2.05;;;;;;;9.70;100.00;92692.56;2100816;28;20155;-87
2021/08/05 03:56:04;;;;;;;4.10;2.20;;;;;;;9.74;100.00;92695.88;2106949;28;20031;-84
2021/08/05 03:57:05;;;;;;;2.08;1.83;;;;;;;9.76;100.00;92690.88;2098675;28;20111;-85
2021/08/05 03:58:07;;;;;;;4.47;1.95;;;;;;;9.79;100.00;92690.81;2101064;28;20405;-83
2021/08/05 03:59:08;;;;;;;1.67;1.58;;;;;;;9.75;100.00;92697.41;2115588;27;20898;-86
2021/08/05 04:00:10;;;;;;;2.17;1.98;;;;;;;9.77;100.00;92695.81;2107130;28;20024;-86
2021/08/05 04:01:11;;;;;;;3.78;2.00;;;;;;;9.80;100.00;92691.56;2099348;28;20029;-84
2021/08/05 04:02:12;;;;;;;2.13;1.92;;;;;;;9.84;100.00;92694.88;2112268;28;20465;-85
2021/08/05 04:03:13;;;;;;;1.77;1.67;;;;;;;9.81;100.00;92699.13;2123786;27;20026;-84
2021/08/05 04:04:14;;;;;;;3.28;2.05;;;;;;;9.83;100.00;92688.03;2110784;28;20047;-86
2021/08/05 04:05:15;;;;;;;1.80;1.70;;;;;;;9.85;100.00;92691.03;2099005;28;20020;-88
2021/08/05 04:06:16;;;;;;;1.95;1.77;;;;;;;9.83;100.00;92694.13;2098785;28;20020;-90
2021/08/05 04:07:17;;;;;;;2.30;2.10;;;;;;;9.86;100.00;92691.78;2098658;28;20098;-84
2021/08/05 04:08:18;;;;;;;3.30;2.10;;;;;;;9.79;100.00;92690.06;2094211;28;20025;-84
2021/08/05 04:09:19;;;;;;;2.22;2.03;;;;;;;9.80;100.00;92691.56;2094335;28;20466;-87
2021/08/05 04:10:20;;;;;;;2.00;1.80;;;;;;;9.81;100.00;92693.78;2094962;28;20711;-83
2021/08/05 04:11:21;;;;;;;1.88;1.77;;;;;;;9.83;100.00;92691.47;2098619;28;20031;-88
2021/08/05 04:12:22;;;;;;;2.25;2.05;;;;;;;9.78;100.00;92691.94;2090326;28;20055;-85
2021/08/05 04:13:22;;;;;;;2.40;2.20;;;;;;;9.83;100.00;92690.69;2098275;28;20020;-86
2021/08/05 04:14:23;;;;;;;3.17;1.83;;;;;;;9.79;100.00;92682.06;2101997;28;20059;-85
2021/08/05 04:15:24;;;;;;;4.00;2.00;;;;;;;9.78;100.00;92685.88;2107111;28;20039;-83
2021/08/05 04:16:25;;;;;;;2.58;2.03;;;;;;;9.85;100.00;92685.69;2090326;28;20111;-84
2021/08/05 04:17:26;;;;;;;2.17;2.08;;;;;;;9.88;100.00;92681.41;2103928;28;20044;-85
2021/08/05 04:18:27;;;;;;;3.45;2.40;;;;;;;9.88;100.00;92686.75;2098399;28;20837;-84
2021/08/05 04:19:28;;;;;;;12.88;2.67;;;;;;;9.86;100.00;92687.19;2105498;28;20016;-86
2021/08/05 04:20:29;;;;;;;4.57;1.90;;;;;;;9.86;100.00;92683.78;2098664;28;20350;-86
2021/08/05 04:21:30;;;;;;;4.50;2.30;;;;;;;9.92;100.00;92682.84;2104435;28;20696;-86
2021/08/05 04:22:31;;;;;;;3.75;2.10;;;;;;;9.88;100.00;92681.41;2115434;28;20028;-84
2021/08/05 04:23:32;;;;;;;2.45;1.80;;;;;;;9.90;100.00;92692.44;2098480;28;20024;-86
2021/08/05 04:24:33;;;;;;;3.03;2.00;;;;;;;9.87;100.00;92683.34;2090426;28;20029;-85
2021/08/05 04:25:34;;;;;;;2.17;1.98;;;;;;;9.93;100.00;92691.59;2096613;28;20027;-84
2021/08/05 04:26:35;;;;;;;2.17;1.70;;;;;;;9.95;100.00;92689.25;2107038;28;20059;-85
2021/08/05 04:27:38;;;;;;;2.17;1.98;;;;;;;9.92;100.00;92690.84;2106968;28;20024;-85
2021/08/05 04:28:39;;;;;;;2.15;1.55;;;;;;;9.96;100.00;92688.81;2113633;28;20016;-85
2021/08/05 04:29:40;;;;;;;2.03;1.90;;;;;;;9.99;100.00;92687.97;2098487;28;20020;-86
2021/08/05 04:30:41;;;;;;;2.13;1.98;;;;;;;9.96;100.00;92686.16;2098509;28;20471;-85
2021/08/05 04:31:42;;;;;;;2.22;2.03;;;;;;;9.97;100.00;92685.00;2115341;28;20024;-84
2021/08/05 04:32:43;;;;;;;2.05;1.92;;;;;;;9.99;100.00;92674.63;2109500;28;20069;-84
2021/08/05 04:33:44;;;;;;;3.25;1.73;;;;;;;9.95;100.00;92676.66;2089959;28;20021;-86
2021/08/05 04:34:48;;;;;;;1.80;1.70;;;;;;;9.99;100.00;92687.97;2102293;28;20024;-85
2021/08/05 04:35:49;;;;;;;2.17;1.70;;;;;;;10.00;100.00;92681.47;2115269;28;20027;-83
2021/08/05 04:36:50;;;;;;;6.35;2.00;;;;;;;10.07;100.00;92677.88;2098368;28;20032;-84
2021/08/05 04:37:57;;;;;;;1.92;1.63;;;;;;;10.09;100.00;92683.53;2106759;28;20028;-83
2021/08/05 04:38:58;;;;;;;2.83;1.80;;;;;;;10.06;100.00;92690.47;2107578;28;20020;-84
2021/08/05 04:39:59;;;;;;;6.72;2.03;;;;;;;10.07;100.00;92686.63;2106001;28;20398;-87
2021/08/05 04:41:00;;;;;;;2.22;1.60;;;;;;;10.06;100.00;92692.41;2091818;28;20108;-86
2021/08/05 04:42:01;;;;;;;1.95;1.67;;;;;;;10.01;100.00;92683.00;2097941;28;20021;-86
2021/08/05 04:43:02;;;;;;;2.42;1.73;;;;;;;10.08;100.00;92685.44;2100669;28;20105;-86
2021/08/05 04:44:03;;;;;;;1.63;1.52;;;;;;;10.06;100.00;92679.06;2100289;28;20025;-85
2021/08/05 04:45:05;;;;;;;1.73;1.40;;;;;;;10.04;100.00;92679.44;2115242;28;20023;-85
2021/08/05 04:46:06;;;;;;;2.78;1.60;;;;;;;10.07;100.00;92678.63;2106761;28;20035;-82
2021/08/05 04:47:07;;;;;;;1.80;1.70;;;;;;;10.02;100.00;92679.13;2090096;28;20028;-83
2021/08/05 04:48:08;;;;;;;1.80;1.70;;;;;;;10.05;100.00;92682.88;2100971;28;20073;-85
2021/08/05 04:49:09;;;;;;;6.43;1.83;;;;;;;10.06;100.00;92679.78;2100413;28;20144;-83
2021/08/05 04:50:10;;;;;;;1.90;1.70;;;;;;;10.21;100.00;92682.06;2092224;28;20493;-86
2021/08/05 04:51:11;;;;;;;2.42;2.20;;;;;;;10.22;100.00;92686.25;2098387;28;20021;-84